Time;durP1;ratioP1;P1;durP2;ratioP2;P2;SDS_P1;SDS_P2;PMS_P1;PMS_P2;Temp;Humidity;BMP_temperature;BMP_pressure;BME280_temperature;BME280_humidity;BME280_pressure;Samples;Min_cycle;Max_cycle;Signal;HPM_P1;HPM_P2
2022/04/12 00:01:25;;;;;;;24.50;22.97;;;;;;;;;;5015691;28;20439;-86
2022/04/12 00:03:53;;;;;;;24.53;22.73;;;;;;;;;;5015608;28;20470;-85
2022/04/12 00:06:20;;;;;;;25.57;23.80;;;;;;;;;;5015814;28;20795;-85
2022/04/12 00:08:48;;;;;;;25.63;23.93;;;;;;;;;;5015475;28;20423;-86
2022/04/12 00:11:17;;;;;;;25.60;24.00;;;;;;;;;;5015775;28;20495;-86
2022/04/12 00:13:44;;;;;;;25.40;23.57;;;;;;;;;;5015999;28;20412;-85
2022/04/12 00:16:12;;;;;;;24.70;23.10;;;;;;;;;;5015970;28;20419;-86
2022/04/12 00:21:24;;;;;;;25.87;24.20;;;;;;;;;;5015672;28;20407;-86
2022/04/12 00:23:51;;;;;;;25.27;23.63;;;;;;;;;;5015583;28;20412;-86
2022/04/12 00:26:20;;;;;;;26.13;24.43;;;;;;;;;;5015484;28;20436;-86
2022/04/12 00:28:47;;;;;;;25.90;24.10;;;;;;;;;;5015391;28;20451;-86
2022/04/12 00:31:15;;;;;;;24.70;23.00;;;;;;;;;;5015809;28;20436;-86
2022/04/12 00:33:42;;;;;;;24.47;23.07;;;;;;;;;;5015621;28;20419;-85
2022/04/12 00:36:10;;;;;;;24.93;23.33;;;;;;;;;;5015889;28;20439;-86
2022/04/12 00:38:38;;;;;;;25.47;23.77;;;;;;;;;;5015428;28;20433;-85
2022/04/12 00:41:05;;;;;;;24.97;23.27;;;;;;;;;;5015522;28;20528;-86
2022/04/12 00:43:36;;;;;;;25.37;23.87;;;;;;;;;;5015178;28;20453;-85
2022/04/12 00:46:04;;;;;;;25.90;24.30;;;;;;;;;;5015248;28;20468;-86
2022/04/12 00:48:32;;;;;;;24.20;22.80;;;;;;;;;;5015521;28;20453;-86
2022/04/12 00:51:00;;;;;;;24.17;22.57;;;;;;;;;;5015008;28;20468;-85
2022/04/12 00:53:28;;;;;;;25.23;23.53;;;;;;;;;;5015392;28;20448;-86
2022/04/12 00:55:55;;;;;;;25.10;23.37;;;;;;;;;;5015425;28;20579;-85
2022/04/12 00:58:22;;;;;;;26.00;23.73;;;;;;;;;;5015382;28;20453;-86
2022/04/12 01:00:51;;;;;;;25.20;23.57;;;;;;;;;;5014812;28;20419;-87
2022/04/12 01:03:19;;;;;;;25.00;23.30;;;;;;;;;;5014772;28;20480;-86
2022/04/12 01:05:46;;;;;;;25.57;23.87;;;;;;;;;;5014898;28;20976;-86
2022/04/12 01:08:13;;;;;;;26.30;24.50;;;;;;;;;;5014694;28;20419;-86
2022/04/12 01:10:44;;;;;;;25.60;23.93;;;;;;;;;;5014424;28;20447;-87
2022/04/12 01:13:11;;;;;;;25.83;23.93;;;;;;;;;;5013912;28;20436;-86
2022/04/12 01:15:39;;;;;;;25.80;24.10;;;;;;;;;;5014839;28;20454;-86
2022/04/12 01:18:08;;;;;;;26.20;24.47;;;;;;;;;;5014617;28;20445;-86
2022/04/12 01:20:35;;;;;;;26.40;24.57;;;;;;;;;;5014563;28;20461;-86
2022/04/12 01:23:08;;;;;;;26.10;24.30;;;;;;;;;;5014715;28;20460;-86
2022/04/12 01:25:38;;;;;;;27.20;25.40;;;;;;;;;;5014390;28;20575;-86
2022/04/12 01:28:06;;;;;;;25.33;23.63;;;;;;;;;;5014965;28;20445;-86
2022/04/12 01:30:33;;;;;;;25.87;24.17;;;;;;;;;;5014894;28;20420;-85
2022/04/12 01:33:01;;;;;;;25.23;23.63;;;;;;;;;;4996887;28;20415;-85
2022/04/12 01:35:28;;;;;;;25.97;24.17;;;;;;;;;;5014859;28;20445;-85
2022/04/12 01:37:56;;;;;;;25.30;23.70;;;;;;;;;;5014578;28;20457;-85
2022/04/12 01:40:23;;;;;;;25.83;24.03;;;;;;;;;;5014455;28;20449;-85
2022/04/12 01:42:52;;;;;;;26.35;24.65;;;;;;;;;;5014834;28;20412;-86
2022/04/12 01:45:20;;;;;;;26.40;24.20;;;;;;;;;;5014514;28;20257;-85
2022/04/12 01:47:48;;;;;;;26.50;24.77;;;;;;;;;;5014772;28;20452;-85
2022/04/12 01:50:15;;;;;;;25.47;23.77;;;;;;;;;;5014545;28;20480;-86
2022/04/12 01:52:43;;;;;;;25.55;23.95;;;;;;;;;;4997269;28;20442;-85
2022/04/12 01:55:11;;;;;;;25.27;23.67;;;;;;;;;;5015041;28;20229;-86
2022/04/12 01:57:38;;;;;;;26.00;24.30;;;;;;;;;;5015196;28;20449;-85
2022/04/12 02:00:09;;;;;;;25.93;24.23;;;;;;;;;;5014727;28;20415;-85
2022/04/12 02:02:36;;;;;;;26.47;24.67;;;;;;;;;;5015057;28;20882;-86
2022/04/12 02:05:04;;;;;;;26.52;24.02;;;;;;;;;;5014886;28;20475;-86
2022/04/12 02:07:31;;;;;;;25.87;24.20;;;;;;;;;;5014735;28;20187;-86
2022/04/12 02:09:58;;;;;;;25.33;23.63;;;;;;;;;;5014712;28;20444;-86
2022/04/12 02:12:26;;;;;;;25.60;23.90;;;;;;;;;;5015736;28;20427;-87
2022/04/12 02:14:53;;;;;;;25.05;23.45;;;;;;;;;;5015499;28;20445;-85
2022/04/12 02:17:25;;;;;;;25.10;23.47;;;;;;;;;;5015569;28;20191;-86
2022/04/12 02:19:52;;;;;;;24.50;22.80;;;;;;;;;;5014928;28;20437;-86
2022/04/12 02:22:20;;;;;;;26.30;24.50;;;;;;;;;;5014920;28;20555;-86
2022/04/12 02:24:47;;;;;;;26.10;24.30;;;;;;;;;;5016393;28;20445;-87
2022/04/12 02:27:15;;;;;;;26.37;24.57;;;;;;;;;;5018033;28;20461;-86
2022/04/12 02:29:42;;;;;;;25.97;24.20;;;;;;;;;;5018545;28;20441;-86
2022/04/12 02:32:10;;;;;;;25.77;23.97;;;;;;;;;;5000205;28;20453;-86
2022/04/12 02:34:39;;;;;;;26.33;24.53;;;;;;;;;;5017480;28;20524;-86
2022/04/12 02:37:07;;;;;;;25.40;23.80;;;;;;;;;;5017577;28;20437;-86
2022/04/12 02:39:34;;;;;;;24.43;22.67;;;;;;;;;;5017503;28;20811;-86
2022/04/12 02:42:01;;;;;;;26.00;23.93;;;;;;;;;;5017738;28;20444;-86
2022/04/12 02:44:29;;;;;;;25.20;23.33;;;;;;;;;;5017598;28;20445;-87
2022/04/12 02:46:56;;;;;;;24.23;22.63;;;;;;;;;;5017510;28;20667;-86
2022/04/12 02:49:24;;;;;;;25.33;23.70;;;;;;;;;;5017602;28;20315;-86
2022/04/12 02:51:53;;;;;;;24.83;23.03;;;;;;;;;;5017716;28;20914;-88
2022/04/12 02:54:20;;;;;;;24.77;23.10;;;;;;;;;;5017801;28;20434;-88
2022/04/12 02:56:47;;;;;;;25.57;23.97;;;;;;;;;;5017523;28;20456;-88
2022/04/12 02:59:15;;;;;;;23.90;22.40;;;;;;;;;;5017114;28;20453;-86
2022/04/12 03:01:42;;;;;;;23.30;21.90;;;;;;;;;;5017287;28;20411;-87
2022/04/12 03:04:09;;;;;;;24.60;22.90;;;;;;;;;;5016989;28;20508;-87
2022/04/12 03:06:37;;;;;;;24.63;22.73;;;;;;;;;;5017183;28;20467;-87
2022/04/12 03:09:05;;;;;;;24.13;22.57;;;;;;;;;;5017087;28;20463;-87
2022/04/12 03:11:34;;;;;;;24.23;22.73;;;;;;;;;;5017194;28;20451;-87
2022/04/12 03:14:01;;;;;;;24.80;23.17;;;;;;;;;;4999640;28;20499;-87
2022/04/12 03:16:29;;;;;;;24.23;22.70;;;;;;;;;;5017045;28;20405;-87
2022/04/12 03:18:56;;;;;;;24.33;22.57;;;;;;;;;;5017164;28;20420;-86
2022/04/12 03:21:23;;;;;;;23.17;21.77;;;;;;;;;;5017268;28;20423;-87
2022/04/12 03:23:51;;;;;;;24.33;22.53;;;;;;;;;;5016926;28;20407;-85
2022/04/12 03:26:20;;;;;;;25.33;23.60;;;;;;;;;;5017006;28;20957;-87
2022/04/12 03:28:47;;;;;;;23.90;22.50;;;;;;;;;;5017077;28;20494;-86
2022/04/12 03:31:14;;;;;;;23.43;22.03;;;;;;;;;;5017021;28;20445;-87
2022/04/12 03:33:42;;;;;;;23.87;22.37;;;;;;;;;;4998804;28;21010;-87
2022/04/12 03:36:09;;;;;;;24.30;22.90;;;;;;;;;;5016131;28;20435;-87
2022/04/12 03:38:40;;;;;;;24.50;23.00;;;;;;;;;;5016530;28;20416;-87
2022/04/12 03:41:07;;;;;;;24.50;23.00;;;;;;;;;;5016720;28;20419;-87
2022/04/12 03:43:38;;;;;;;23.87;22.37;;;;;;;;;;5016784;28;20448;-86
2022/04/12 03:46:08;;;;;;;24.17;22.57;;;;;;;;;;5016204;28;20485;-87
2022/04/12 03:48:36;;;;;;;24.97;23.33;;;;;;;;;;5016378;28;20421;-87
2022/04/12 03:51:03;;;;;;;24.57;23.07;;;;;;;;;;5016513;28;20416;-86
2022/04/12 03:53:30;;;;;;;23.97;22.47;;;;;;;;;;4998890;28;20467;-87
2022/04/12 03:55:58;;;;;;;24.53;22.93;;;;;;;;;;5016272;28;20437;-86
2022/04/12 03:58:26;;;;;;;25.40;23.70;;;;;;;;;;5016329;28;20404;-87
2022/04/12 04:00:55;;;;;;;24.97;23.23;;;;;;;;;;5016300;28;20793;-87
2022/04/12 04:03:22;;;;;;;24.53;22.77;;;;;;;;;;5015618;28;20535;-87
2022/04/12 04:05:50;;;;;;;23.60;22.27;;;;;;;;;;5016050;28;20504;-87
2022/04/12 04:08:17;;;;;;;23.43;22.03;;;;;;;;;;5015851;28;20431;-87
2022/04/12 04:10:45;;;;;;;24.25;22.75;;;;;;;;;;5015923;28;20454;-86
2022/04/12 04:13:17;;;;;;;24.73;23.23;;;;;;;;;;4998494;28;20236;-86
2022/04/12 04:15:45;;;;;;;25.83;24.03;;;;;;;;;;4998445;28;20673;-86
2022/04/12 04:18:15;;;;;;;25.13;23.53;;;;;;;;;;5016053;28;20444;-86
2022/04/12 04:20:43;;;;;;;24.57;22.97;;;;;;;;;;5015829;28;20441;-87
2022/04/12 04:23:10;;;;;;;24.43;22.83;;;;;;;;;;5016065;28;20919;-87
2022/04/12 04:25:38;;;;;;;25.10;23.40;;;;;;;;;;5015572;28;20988;-87
2022/04/12 04:28:10;;;;;;;25.67;23.87;;;;;;;;;;5015959;28;20874;-87
2022/04/12 04:30:39;;;;;;;24.73;23.13;;;;;;;;;;5015963;28;20420;-87
2022/04/12 04:33:08;;;;;;;24.53;22.73;;;;;;;;;;5015983;28;20422;-87
2022/04/12 04:35:37;;;;;;;25.03;23.40;;;;;;;;;;5015470;28;20449;-87
2022/04/12 04:38:05;;;;;;;24.53;22.90;;;;;;;;;;5015431;28;20416;-87
2022/04/12 04:40:32;;;;;;;24.97;23.37;;;;;;;;;;5015377;28;20441;-87
2022/04/12 04:42:59;;;;;;;25.00;23.50;;;;;;;;;;5015145;28;20440;-85
2022/04/12 04:45:27;;;;;;;24.80;23.20;;;;;;;;;;5015588;28;20434;-92
2022/04/12 04:47:55;;;;;;;26.00;24.10;;;;;;;;;;5014813;28;20412;-93
2022/04/12 04:50:22;;;;;;;23.87;22.40;;;;;;;;;;5015509;28;20474;-93
2022/04/12 04:52:51;;;;;;;24.30;22.80;;;;;;;;;;5015173;28;20457;-93
2022/04/12 04:55:19;;;;;;;25.20;23.50;;;;;;;;;;5015243;28;20522;-93
2022/04/12 04:57:47;;;;;;;24.40;22.70;;;;;;;;;;5015465;28;20455;-93
2022/04/12 05:00:16;;;;;;;25.53;23.63;;;;;;;;;;5015515;28;20190;-93
2022/04/12 05:02:44;;;;;;;25.23;23.53;;;;;;;;;;5015374;28;20465;-92
2022/04/12 05:05:11;;;;;;;25.73;24.03;;;;;;;;;;5015231;28;20461;-93
2022/04/12 05:07:39;;;;;;;24.97;23.27;;;;;;;;;;5015037;28;20463;-93
2022/04/12 05:10:08;;;;;;;24.80;23.25;;;;;;;;;;5015424;28;20452;-93
2022/04/12 05:12:36;;;;;;;26.07;24.07;;;;;;;;;;5015365;28;20194;-93
2022/04/12 05:15:03;;;;;;;25.50;23.90;;;;;;;;;;5015092;28;20512;-93
2022/04/12 05:17:30;;;;;;;24.93;23.40;;;;;;;;;;5014763;28;20792;-93
2022/04/12 05:19:58;;;;;;;25.70;23.80;;;;;;;;;;5015125;28;20453;-93
2022/04/12 05:22:25;;;;;;;24.73;23.23;;;;;;;;;;5014892;28;20436;-93
2022/04/12 05:24:53;;;;;;;26.00;24.27;;;;;;;;;;5014680;28;20460;-92
2022/04/12 05:27:22;;;;;;;26.50;24.80;;;;;;;;;;5014893;28;20495;-92
2022/04/12 05:29:50;;;;;;;26.73;25.23;;;;;;;;;;4997261;28;20544;-93
2022/04/12 05:32:17;;;;;;;26.77;24.97;;;;;;;;;;4997687;28;20438;-93
2022/04/12 05:34:46;;;;;;;26.20;24.60;;;;;;;;;;5014695;28;20453;-92
2022/04/12 05:37:13;;;;;;;26.60;24.80;;;;;;;;;;5014967;28;20453;-93
2022/04/12 05:39:41;;;;;;;27.03;25.03;;;;;;;;;;5014551;28;20449;-93
2022/04/12 05:42:08;;;;;;;26.90;24.97;;;;;;;;;;5014611;28;20440;-92
2022/04/12 05:44:37;;;;;;;27.20;25.30;;;;;;;;;;5014629;28;20449;-93
2022/04/12 05:47:05;;;;;;;25.97;24.23;;;;;;;;;;4997050;28;20492;-92
2022/04/12 05:49:33;;;;;;;25.47;23.83;;;;;;;;;;5014495;28;20438;-93
2022/04/12 05:52:00;;;;;;;25.63;23.93;;;;;;;;;;5014883;28;20441;-92
2022/04/12 05:54:28;;;;;;;26.10;24.50;;;;;;;;;;5014996;28;20449;-92
2022/04/12 05:56:55;;;;;;;26.60;24.90;;;;;;;;;;5014903;28;20798;-92
2022/04/12 05:59:22;;;;;;;26.20;24.27;;;;;;;;;;5014920;28;20516;-92
2022/04/12 06:01:51;;;;;;;26.00;24.23;;;;;;;;;;5014977;28;20434;-92
2022/04/12 06:04:19;;;;;;;25.97;24.27;;;;;;;;;;5013798;28;20485;-92
2022/04/12 06:06:46;;;;;;;26.37;24.57;;;;;;;;;;5014337;28;20499;-94
2022/04/12 06:09:13;;;;;;;26.60;24.40;;;;;;;;;;5014509;28;20816;-93
2022/04/12 06:11:41;;;;;;;25.60;24.00;;;;;;;;;;4996742;28;20495;-92
2022/04/12 06:14:08;;;;;;;26.63;24.93;;;;;;;;;;5014549;28;20441;-95
2022/04/12 06:16:36;;;;;;;25.87;24.13;;;;;;;;;;4997415;28;20453;-95
2022/04/12 06:19:05;;;;;;;27.10;25.20;;;;;;;;;;4996995;28;20862;-95
2022/04/12 06:21:33;;;;;;;26.07;24.33;;;;;;;;;;5014230;28;20447;-93
2022/04/12 06:24:00;;;;;;;27.13;25.17;;;;;;;;;;5014495;28;20453;-94
2022/04/12 06:26:27;;;;;;;26.80;24.83;;;;;;;;;;5014200;28;20824;-94
2022/04/12 06:28:55;;;;;;;27.43;25.60;;;;;;;;;;5014276;28;20447;-93
2022/04/12 06:31:22;;;;;;;26.97;25.07;;;;;;;;;;5014869;28;20443;-94
2022/04/12 06:33:50;;;;;;;26.13;24.33;;;;;;;;;;5014499;28;20422;-95
2022/04/12 06:36:19;;;;;;;26.90;25.00;;;;;;;;;;5014428;28;20970;-88
2022/04/12 06:38:46;;;;;;;26.63;24.80;;;;;;;;;;4997668;28;20519;-96
2022/04/12 06:41:14;;;;;;;26.37;24.43;;;;;;;;;;5013944;28;20432;-94
2022/04/12 06:43:41;;;;;;;25.50;23.80;;;;;;;;;;5013680;28;20460;-94
2022/04/12 06:46:08;;;;;;;26.27;24.37;;;;;;;;;;4996217;28;20431;-94
2022/04/12 06:48:36;;;;;;;25.80;24.10;;;;;;;;;;5014029;28;20452;-94
2022/04/12 06:51:03;;;;;;;25.63;23.80;;;;;;;;;;5013737;28;20456;-93
2022/04/12 06:53:34;;;;;;;25.77;24.07;;;;;;;;;;5014195;28;20445;-93
2022/04/12 06:56:01;;;;;;;26.13;24.53;;;;;;;;;;5014162;28;20420;-92
2022/04/12 06:58:29;;;;;;;25.80;24.10;;;;;;;;;;5013833;28;20476;-93
2022/04/12 07:00:56;;;;;;;25.57;23.87;;;;;;;;;;5013807;28;20438;-92
2022/04/12 07:03:24;;;;;;;26.50;24.60;;;;;;;;;;5013853;28;20889;-89
2022/04/12 07:05:55;;;;;;;26.47;24.37;;;;;;;;;;5013680;28;20483;-89
2022/04/12 07:08:23;;;;;;;27.50;25.70;;;;;;;;;;5013354;28;20556;-88
2022/04/12 07:10:52;;;;;;;26.87;25.03;;;;;;;;;;5013960;28;21037;-89
2022/04/12 07:13:20;;;;;;;26.83;25.13;;;;;;;;;;5017067;28;20502;-90
2022/04/12 07:15:49;;;;;;;28.23;26.40;;;;;;;;;;5017118;28;20487;-89
2022/04/12 07:18:17;;;;;;;27.50;25.60;;;;;;;;;;5017359;28;20483;-90
2022/04/12 07:20:45;;;;;;;26.70;25.00;;;;;;;;;;5017151;28;20461;-90
2022/04/12 07:23:12;;;;;;;27.50;25.67;;;;;;;;;;5017064;28;20437;-90
2022/04/12 07:25:39;;;;;;;27.50;25.70;;;;;;;;;;5017055;28;20457;-88
2022/04/12 07:28:08;;;;;;;26.67;24.87;;;;;;;;;;5016970;28;20494;-88
2022/04/12 07:30:36;;;;;;;26.03;24.33;;;;;;;;;;5017303;28;20807;-88
2022/04/12 07:33:03;;;;;;;26.97;25.07;;;;;;;;;;5016716;28;20436;-88
2022/04/12 07:35:31;;;;;;;26.30;24.50;;;;;;;;;;5016839;28;20441;-88
2022/04/12 07:37:58;;;;;;;28.00;25.70;;;;;;;;;;5016983;28;20424;-88
2022/04/12 07:40:25;;;;;;;26.10;24.30;;;;;;;;;;5016925;28;20428;-88
2022/04/12 07:42:53;;;;;;;25.73;23.93;;;;;;;;;;4999136;28;20420;-86
2022/04/12 07:45:22;;;;;;;26.03;24.23;;;;;;;;;;5016650;28;20424;-90
2022/04/12 07:47:49;;;;;;;26.73;24.73;;;;;;;;;;5017050;28;20459;-89
2022/04/12 07:50:16;;;;;;;25.70;24.00;;;;;;;;;;5016606;28;20428;-88
2022/04/12 07:52:44;;;;;;;26.80;24.90;;;;;;;;;;5017018;28;20438;-90
2022/04/12 07:55:11;;;;;;;26.67;24.87;;;;;;;;;;5000409;28;20446;-91
2022/04/12 07:57:39;;;;;;;26.37;24.63;;;;;;;;;;5016614;28;20461;-91
2022/04/12 08:00:06;;;;;;;27.33;25.43;;;;;;;;;;4999669;28;20958;-90
2022/04/12 08:02:35;;;;;;;26.07;24.37;;;;;;;;;;5016661;28;20434;-91
2022/04/12 08:05:03;;;;;;;27.73;25.77;;;;;;;;;;5016006;28;20987;-90
2022/04/12 08:07:30;;;;;;;27.10;25.20;;;;;;;;;;4999084;28;20470;-91
2022/04/12 08:09:58;;;;;;;27.70;25.80;;;;;;;;;;4998913;28;20448;-90
2022/04/12 08:12:26;;;;;;;25.90;24.20;;;;;;;;;;5016564;28;20424;-91
2022/04/12 08:14:53;;;;;;;26.30;24.50;;;;;;;;;;5016502;28;20441;-91
2022/04/12 08:17:20;;;;;;;27.60;25.60;;;;;;;;;;5016328;28;20428;-91
2022/04/12 08:19:49;;;;;;;27.33;25.43;;;;;;;;;;5016599;28;20441;-91
2022/04/12 08:22:17;;;;;;;27.27;25.27;;;;;;;;;;5015907;28;20416;-91
2022/04/12 08:24:44;;;;;;;28.30;26.30;;;;;;;;;;5016530;28;20935;-91
2022/04/12 08:27:13;;;;;;;26.63;24.70;;;;;;;;;;5000175;28;20511;-91
2022/04/12 08:29:40;;;;;;;27.10;25.00;;;;;;;;;;5016554;28;20467;-91
2022/04/12 08:32:08;;;;;;;28.13;25.97;;;;;;;;;;4999590;28;20428;-91
2022/04/12 08:34:35;;;;;;;27.53;25.43;;;;;;;;;;5016350;28;20432;-91
2022/04/12 08:37:05;;;;;;;26.57;24.47;;;;;;;;;;5015787;28;20773;-91
2022/04/12 08:39:32;;;;;;;27.83;25.67;;;;;;;;;;5015742;28;20952;-91
2022/04/12 08:42:03;;;;;;;27.10;25.20;;;;;;;;;;5016321;28;20423;-91
2022/04/12 08:44:31;;;;;;;27.30;25.30;;;;;;;;;;5015635;28;20412;-91
2022/04/12 08:46:59;;;;;;;28.23;26.13;;;;;;;;;;4998587;28;20485;-91
2022/04/12 08:49:26;;;;;;;26.63;24.63;;;;;;;;;;4998044;28;20519;-91
2022/04/12 08:51:54;;;;;;;26.50;24.60;;;;;;;;;;5015474;28;20419;-91
2022/04/12 08:54:23;;;;;;;26.83;24.93;;;;;;;;;;5015759;28;20416;-91
2022/04/12 08:56:52;;;;;;;28.17;26.03;;;;;;;;;;5015242;28;20442;-91
2022/04/12 08:59:19;;;;;;;26.77;24.97;;;;;;;;;;5015376;28;20419;-91
2022/04/12 09:01:47;;;;;;;26.27;24.47;;;;;;;;;;5015378;28;20461;-91
2022/04/12 09:04:15;;;;;;;26.57;24.50;;;;;;;;;;5015078;28;20455;-91
2022/04/12 09:06:52;;;;;;;27.20;25.20;;;;;;;;;;5015069;28;20438;-91
2022/04/12 09:09:20;;;;;;;26.77;24.80;;;;;;;;;;5015387;28;20774;-90
2022/04/12 09:11:58;;;;;;;29.60;27.40;;;;;;;;;;5015030;28;20447;-91
2022/04/12 09:14:26;;;;;;;24.07;22.30;;;;;;;;;;5015092;28;20940;-91
2022/04/12 09:16:53;;;;;;;27.10;25.07;;;;;;;;;;4997630;28;20960;-92
2022/04/12 09:19:35;;;;;;;26.30;24.40;;;;;;;;;;5015345;28;20524;-91
2022/04/12 09:22:03;;;;;;;26.53;24.50;;;;;;;;;;5014509;28;20937;-91
2022/04/12 09:24:30;;;;;;;27.37;25.23;;;;;;;;;;5015045;28;20412;-89
2022/04/12 09:27:01;;;;;;;27.03;24.90;;;;;;;;;;5014703;28;20438;-88
2022/04/12 09:29:29;;;;;;;27.03;24.97;;;;;;;;;;5014934;28;20931;-89
2022/04/12 09:31:59;;;;;;;26.60;24.50;;;;;;;;;;5014929;28;20456;-89
2022/04/12 09:34:28;;;;;;;27.23;25.43;;;;;;;;;;5014158;28;20441;-88
2022/04/12 09:36:55;;;;;;;27.97;26.07;;;;;;;;;;5015279;28;20818;-94
2022/04/12 09:39:23;;;;;;;29.37;26.90;;;;;;;;;;5014543;28;20460;-87
2022/04/12 09:41:50;;;;;;;27.60;25.70;;;;;;;;;;5014394;28;20430;-91
2022/04/12 09:44:21;;;;;;;27.93;26.03;;;;;;;;;;5014563;28;20468;-91
2022/04/12 09:46:49;;;;;;;28.50;26.37;;;;;;;;;;5014898;28;20461;-92
2022/04/12 09:49:17;;;;;;;27.50;25.70;;;;;;;;;;5014859;28;20905;-94
2022/04/12 09:51:49;;;;;;;26.13;24.33;;;;;;;;;;5014566;28;20464;-92
2022/04/12 09:54:23;;;;;;;28.13;25.73;;;;;;;;;;5014675;28;20453;-89
2022/04/12 09:56:51;;;;;;;26.67;24.63;;;;;;;;;;5014404;28;20408;-88
2022/04/12 09:59:20;;;;;;;28.70;26.10;;;;;;;;;;5014411;28;20441;-88
2022/04/12 10:01:47;;;;;;;27.67;25.60;;;;;;;;;;5014645;28;20444;-88
2022/04/12 10:04:17;;;;;;;26.57;24.77;;;;;;;;;;5013914;28;20464;-88
2022/04/12 10:06:44;;;;;;;26.33;24.53;;;;;;;;;;5014269;28;20469;-88
2022/04/12 10:09:14;;;;;;;28.27;26.37;;;;;;;;;;5014236;28;20464;-88
2022/04/12 10:11:42;;;;;;;27.00;25.10;;;;;;;;;;5014360;28;20452;-90
2022/04/12 10:14:11;;;;;;;26.33;24.43;;;;;;;;;;5014434;28;20419;-89
2022/04/12 10:16:41;;;;;;;27.50;25.57;;;;;;;;;;5014344;28;20414;-89
2022/04/12 10:19:08;;;;;;;26.80;25.00;;;;;;;;;;5014641;28;20861;-90
2022/04/12 10:21:36;;;;;;;28.27;26.27;;;;;;;;;;5013999;28;20432;-89
2022/04/12 10:24:04;;;;;;;28.23;26.23;;;;;;;;;;5014305;28;20478;-89
2022/04/12 10:26:32;;;;;;;28.23;26.23;;;;;;;;;;5013939;28;20443;-89
2022/04/12 10:29:00;;;;;;;27.90;25.90;;;;;;;;;;5013975;28;20463;-89
2022/04/12 10:31:30;;;;;;;27.33;25.43;;;;;;;;;;5014187;28;20436;-88
2022/04/12 10:34:14;;;;;;;28.70;26.50;;;;;;;;;;5014037;28;20500;-90
2022/04/12 10:36:59;;;;;;;28.17;26.17;;;;;;;;;;5014251;28;20491;-90
2022/04/12 10:39:31;;;;;;;28.33;26.33;;;;;;;;;;5014391;28;20435;-90
2022/04/12 10:41:58;;;;;;;28.43;26.43;;;;;;;;;;5014237;28;20480;-90
2022/04/12 10:44:26;;;;;;;29.20;27.10;;;;;;;;;;5014177;28;20435;-90
2022/04/12 10:46:53;;;;;;;28.40;26.30;;;;;;;;;;5016155;28;20950;-91
2022/04/12 10:49:24;;;;;;;28.23;26.23;;;;;;;;;;5003127;28;20484;-96
2022/04/12 10:51:59;;;;;;;28.17;26.27;;;;;;;;;;5000870;28;20433;-91
2022/04/12 10:54:31;;;;;;;27.33;25.33;;;;;;;;;;4999941;28;20436;-96
2022/04/12 10:57:19;;;;;;;27.53;25.53;;;;;;;;;;5001799;28;20443;-96
2022/04/12 10:59:48;;;;;;;27.10;25.10;;;;;;;;;;4997017;28;20468;-96
2022/04/12 11:02:15;;;;;;;27.80;25.90;;;;;;;;;;4999361;28;20447;-90
2022/04/12 11:04:44;;;;;;;27.90;25.90;;;;;;;;;;4980959;28;20482;-93
2022/04/12 11:07:12;;;;;;;27.70;25.70;;;;;;;;;;4998976;28;20505;-95
2022/04/12 11:09:39;;;;;;;27.60;25.70;;;;;;;;;;4997848;28;20472;-90
2022/04/12 11:12:07;;;;;;;27.57;25.33;;;;;;;;;;4997732;28;20492;-90
2022/04/12 11:14:36;;;;;;;27.20;25.20;;;;;;;;;;4997748;28;20409;-90
2022/04/12 11:17:04;;;;;;;76.37;69.70;;;;;;;;;;4997962;28;20789;-86
2022/04/12 11:19:42;;;;;;;737.40;673.88;;;;;;;;;;5034230;28;20455;-92
2022/04/12 11:22:13;;;;;;;28.90;26.60;;;;;;;;;;5037151;28;20197;-91
2022/04/12 11:24:40;;;;;;;27.30;25.50;;;;;;;;;;5036903;28;20403;-95
2022/04/12 11:27:09;;;;;;;28.00;25.90;;;;;;;;;;5039929;28;20486;-96
2022/04/12 11:29:37;;;;;;;27.80;25.80;;;;;;;;;;5041183;28;20457;-96
2022/04/12 11:32:05;;;;;;;29.40;27.40;;;;;;;;;;5040399;28;20438;-96
2022/04/12 11:34:33;;;;;;;28.67;26.50;;;;;;;;;;5026582;28;20411;-96
2022/04/12 11:37:02;;;;;;;28.93;26.70;;;;;;;;;;5023636;28;20425;-94
2022/04/12 11:39:32;;;;;;;27.53;25.63;;;;;;;;;;5038221;28;20514;-96
2022/04/12 11:42:00;;;;;;;28.30;26.30;;;;;;;;;;5036998;28;20422;-96
2022/04/12 11:44:27;;;;;;;27.73;25.73;;;;;;;;;;5036781;28;20419;-96
2022/04/12 11:46:58;;;;;;;28.37;26.27;;;;;;;;;;5036434;28;20452;-95
2022/04/12 11:49:29;;;;;;;29.27;27.07;;;;;;;;;;5018789;28;20483;-92
2022/04/12 11:51:59;;;;;;;27.87;25.77;;;;;;;;;;5036608;28;20429;-87
2022/04/12 11:54:27;;;;;;;29.60;27.30;;;;;;;;;;5019803;28;20411;-89
2022/04/12 11:57:03;;;;;;;28.73;26.53;;;;;;;;;;5044024;28;20400;-96
2022/04/12 11:59:32;;;;;;;28.17;26.17;;;;;;;;;;5052402;28;20419;-90
2022/04/12 12:02:02;;;;;;;28.93;26.83;;;;;;;;;;5036419;28;20439;-92
2022/04/12 12:04:30;;;;;;;28.30;26.20;;;;;;;;;;5035934;28;20541;-92
2022/04/12 12:06:59;;;;;;;27.13;25.30;;;;;;;;;;5036158;28;20434;-95
2022/04/12 12:09:26;;;;;;;27.77;25.77;;;;;;;;;;5039199;28;20500;-89
2022/04/12 12:11:54;;;;;;;27.37;25.43;;;;;;;;;;5038647;28;20444;-89
2022/04/12 12:14:23;;;;;;;27.37;25.10;;;;;;;;;;5039192;28;20411;-91
2022/04/12 12:17:01;;;;;;;29.70;27.40;;;;;;;;;;5039047;28;20515;-89
2022/04/12 12:19:29;;;;;;;27.77;25.47;;;;;;;;;;5002533;28;20835;-83
2022/04/12 12:21:56;;;;;;;27.50;25.40;;;;;;;;;;5017713;28;20826;-86
2022/04/12 12:24:24;;;;;;;28.83;26.63;;;;;;;;;;5019105;28;20424;-86
2022/04/12 12:26:55;;;;;;;28.23;26.13;;;;;;;;;;5020681;28;20443;-88
2022/04/12 12:29:24;;;;;;;27.80;25.80;;;;;;;;;;5022241;28;20459;-92
2022/04/12 12:31:51;;;;;;;28.10;26.10;;;;;;;;;;5003563;28;20436;-90
2022/04/12 12:34:29;;;;;;;28.03;26.03;;;;;;;;;;5002417;28;20442;-91
2022/04/12 12:36:56;;;;;;;28.50;26.40;;;;;;;;;;5001218;28;20467;-89
2022/04/12 12:39:27;;;;;;;28.27;25.90;;;;;;;;;;4998972;28;20443;-90
2022/04/12 12:41:57;;;;;;;27.83;25.67;;;;;;;;;;4999159;28;20911;-89
2022/04/12 12:44:27;;;;;;;25.60;23.70;;;;;;;;;;4998600;28;20467;-90
2022/04/12 12:46:59;;;;;;;27.20;25.13;;;;;;;;;;4996268;28;20438;-90
2022/04/12 12:49:35;;;;;;;27.67;25.63;;;;;;;;;;4996541;28;20489;-90
2022/04/12 12:52:04;;;;;;;27.57;25.40;;;;;;;;;;4996864;28;20421;-90
2022/04/12 12:54:31;;;;;;;28.03;25.93;;;;;;;;;;4979013;28;20433;-90
2022/04/12 12:57:01;;;;;;;29.13;26.67;;;;;;;;;;4996555;28;20438;-90
2022/04/12 12:59:31;;;;;;;29.37;26.87;;;;;;;;;;4995554;28;20903;-91
2022/04/12 13:01:59;;;;;;;25.47;23.77;;;;;;;;;;4997141;28;20446;-90
2022/04/12 13:04:28;;;;;;;27.63;25.63;;;;;;;;;;4996608;28;20583;-90
2022/04/12 13:07:03;;;;;;;27.77;25.77;;;;;;;;;;4997387;28;20480;-90
2022/04/12 13:09:31;;;;;;;28.13;26.07;;;;;;;;;;4995968;28;20475;-90
2022/04/12 13:11:59;;;;;;;28.13;26.13;;;;;;;;;;4980375;28;20428;-91
2022/04/12 13:14:26;;;;;;;27.50;25.50;;;;;;;;;;4980063;28;20433;-92
2022/04/12 13:16:57;;;;;;;28.90;26.63;;;;;;;;;;4979000;28;20435;-91
2022/04/12 13:19:28;;;;;;;28.70;26.37;;;;;;;;;;4997349;28;20899;-92
2022/04/12 13:21:56;;;;;;;26.80;24.87;;;;;;;;;;4997098;28;20450;-91
2022/04/12 13:24:24;;;;;;;28.47;26.37;;;;;;;;;;4997911;28;20537;-91
2022/04/12 13:26:51;;;;;;;28.03;26.03;;;;;;;;;;4997705;28;20421;-90
2022/04/12 13:29:21;;;;;;;28.30;26.30;;;;;;;;;;4996836;28;21005;-91
2022/04/12 13:31:52;;;;;;;30.50;28.40;;;;;;;;;;4997286;28;20503;-91
2022/04/12 13:34:21;;;;;;;28.30;26.30;;;;;;;;;;4997573;28;20457;-91
2022/04/12 13:36:48;;;;;;;29.90;27.67;;;;;;;;;;4997612;28;20424;-90
2022/04/12 13:39:16;;;;;;;28.23;26.20;;;;;;;;;;4998199;28;20412;-90
2022/04/12 13:41:44;;;;;;;28.40;26.30;;;;;;;;;;4998514;28;20413;-89
2022/04/12 13:44:12;;;;;;;28.33;26.33;;;;;;;;;;4997128;28;20439;-88
2022/04/12 13:46:40;;;;;;;27.90;26.00;;;;;;;;;;4996446;28;20439;-88
2022/04/12 13:49:07;;;;;;;28.50;26.50;;;;;;;;;;4995741;28;20984;-88
2022/04/12 13:51:36;;;;;;;28.60;26.40;;;;;;;;;;4996660;28;20455;-88
2022/04/12 13:54:04;;;;;;;27.50;25.47;;;;;;;;;;4978687;28;20428;-88
2022/04/12 13:56:31;;;;;;;29.77;27.57;;;;;;;;;;4995634;28;20811;-89
2022/04/12 13:58:59;;;;;;;27.40;25.40;;;;;;;;;;4995578;28;20431;-88
2022/04/12 14:01:26;;;;;;;27.43;25.13;;;;;;;;;;4978681;28;20428;-89
2022/04/12 14:03:55;;;;;;;27.77;25.97;;;;;;;;;;4995161;28;20460;-89
2022/04/12 14:06:23;;;;;;;27.67;25.87;;;;;;;;;;4995394;28;20438;-90
2022/04/12 14:08:52;;;;;;;25.97;24.07;;;;;;;;;;4994903;28;20460;-88
2022/04/12 14:11:19;;;;;;;26.20;24.40;;;;;;;;;;4995525;28;20558;-89
2022/04/12 14:13:47;;;;;;;26.83;24.93;;;;;;;;;;4996166;28;20424;-88
2022/04/12 14:16:15;;;;;;;26.73;24.70;;;;;;;;;;4996381;28;20416;-89
2022/04/12 14:18:43;;;;;;;27.07;25.07;;;;;;;;;;4979645;28;20494;-89
2022/04/12 14:21:11;;;;;;;27.57;25.53;;;;;;;;;;4998673;28;20434;-88
2022/04/12 14:23:39;;;;;;;27.20;25.40;;;;;;;;;;5000882;28;20441;-89
2022/04/12 14:26:09;;;;;;;27.90;26.00;;;;;;;;;;4999297;28;20413;-89